sensor_id;sensor_type;location;lat;lon;timestamp;P1;durP1;ratioP1;P2;durP2;ratioP2
38513;SDS011;24282;48.400;10.808;2023-04-24T00:00:03;3.73;;;1.07;;
38513;SDS011;24282;48.400;10.808;2023-04-24T00:02:34;1.80;;;1.00;;
38513;SDS011;24282;48.400;10.808;2023-04-24T00:05:03;3.03;;;1.27;;
38513;SDS011;24282;48.400;10.808;2023-04-24T00:07:32;1.67;;;1.10;;
38513;SDS011;24282;48.400;10.808;2023-04-24T00:09:59;1.67;;;1.10;;
38513;SDS011;24282;48.400;10.808;2023-04-24T00:12:25;0.97;;;0.87;;
38513;SDS011;24282;48.400;10.808;2023-04-24T00:14:52;1.27;;;0.93;;
38513;SDS011;24282;48.400;10.808;2023-04-24T00:17:18;3.13;;;0.77;;
38513;SDS011;24282;48.400;10.808;2023-04-24T00:19:45;1.50;;;0.80;;
38513;SDS011;24282;48.400;10.808;2023-04-24T00:22:23;1.37;;;0.80;;
38513;SDS011;24282;48.400;10.808;2023-04-24T00:24:50;1.50;;;1.10;;
38513;SDS011;24282;48.400;10.808;2023-04-24T00:27:16;0.97;;;0.73;;
38513;SDS011;24282;48.400;10.808;2023-04-24T00:29:42;2.50;;;0.83;;
38513;SDS011;24282;48.400;10.808;2023-04-24T00:32:07;2.30;;;1.00;;
38513;SDS011;24282;48.400;10.808;2023-04-24T00:34:33;1.63;;;1.10;;
38513;SDS011;24282;48.400;10.808;2023-04-24T00:36:59;2.10;;;1.27;;
38513;SDS011;24282;48.400;10.808;2023-04-24T00:39:25;1.30;;;0.93;;
38513;SDS011;24282;48.400;10.808;2023-04-24T00:41:51;1.20;;;0.80;;
38513;SDS011;24282;48.400;10.808;2023-04-24T00:44:17;2.83;;;1.00;;
38513;SDS011;24282;48.400;10.808;2023-04-24T00:46:43;1.43;;;0.87;;
38513;SDS011;24282;48.400;10.808;2023-04-24T00:49:09;1.03;;;0.80;;
38513;SDS011;24282;48.400;10.808;2023-04-24T00:51:35;0.63;;;0.60;;
38513;SDS011;24282;48.400;10.808;2023-04-24T00:54:01;1.37;;;0.70;;
38513;SDS011;24282;48.400;10.808;2023-04-24T00:56:27;1.17;;;0.80;;
38513;SDS011;24282;48.400;10.808;2023-04-24T00:58:53;1.20;;;0.70;;
38513;SDS011;24282;48.400;10.808;2023-04-24T01:01:20;0.80;;;0.70;;
38513;SDS011;24282;48.400;10.808;2023-04-24T01:03:47;1.90;;;0.83;;
38513;SDS011;24282;48.400;10.808;2023-04-24T01:06:15;2.40;;;0.90;;
38513;SDS011;24282;48.400;10.808;2023-04-24T01:08:42;1.27;;;0.77;;
38513;SDS011;24282;48.400;10.808;2023-04-24T01:11:10;0.83;;;0.60;;
38513;SDS011;24282;48.400;10.808;2023-04-24T01:13:37;1.63;;;0.73;;
38513;SDS011;24282;48.400;10.808;2023-04-24T01:16:03;1.03;;;0.90;;
38513;SDS011;24282;48.400;10.808;2023-04-24T01:18:29;2.27;;;1.33;;
38513;SDS011;24282;48.400;10.808;2023-04-24T01:20:57;2.50;;;0.90;;
38513;SDS011;24282;48.400;10.808;2023-04-24T01:23:24;1.20;;;0.73;;
38513;SDS011;24282;48.400;10.808;2023-04-24T01:25:51;1.83;;;0.80;;
38513;SDS011;24282;48.400;10.808;2023-04-24T01:28:17;1.70;;;0.93;;
38513;SDS011;24282;48.400;10.808;2023-04-24T01:30:43;1.13;;;0.60;;
38513;SDS011;24282;48.400;10.808;2023-04-24T01:33:09;1.43;;;0.90;;
38513;SDS011;24282;48.400;10.808;2023-04-24T01:35:35;2.33;;;0.80;;
38513;SDS011;24282;48.400;10.808;2023-04-24T01:38:02;0.60;;;0.60;;
38513;SDS011;24282;48.400;10.808;2023-04-24T01:40:28;2.23;;;0.80;;
38513;SDS011;24282;48.400;10.808;2023-04-24T01:42:57;2.27;;;0.93;;
38513;SDS011;24282;48.400;10.808;2023-04-24T01:45:23;1.13;;;0.67;;
38513;SDS011;24282;48.400;10.808;2023-04-24T01:47:49;2.00;;;1.17;;
38513;SDS011;24282;48.400;10.808;2023-04-24T01:50:16;1.73;;;1.00;;
38513;SDS011;24282;48.400;10.808;2023-04-24T01:52:42;1.50;;;0.63;;
38513;SDS011;24282;48.400;10.808;2023-04-24T01:55:09;2.97;;;0.83;;
38513;SDS011;24282;48.400;10.808;2023-04-24T01:57:35;2.87;;;0.97;;
38513;SDS011;24282;48.400;10.808;2023-04-24T02:00:01;2.17;;;1.00;;
38513;SDS011;24282;48.400;10.808;2023-04-24T02:02:41;1.37;;;0.97;;
38513;SDS011;24282;48.400;10.808;2023-04-24T02:05:07;1.57;;;0.80;;
38513;SDS011;24282;48.400;10.808;2023-04-24T02:07:35;2.97;;;0.70;;
38513;SDS011;24282;48.400;10.808;2023-04-24T02:10:01;1.30;;;0.90;;
38513;SDS011;24282;48.400;10.808;2023-04-24T02:12:29;2.30;;;0.90;;
38513;SDS011;24282;48.400;10.808;2023-04-24T02:14:55;1.40;;;0.80;;
38513;SDS011;24282;48.400;10.808;2023-04-24T02:17:20;1.03;;;0.70;;
38513;SDS011;24282;48.400;10.808;2023-04-24T02:19:46;1.17;;;0.87;;
38513;SDS011;24282;48.400;10.808;2023-04-24T02:22:12;1.50;;;0.90;;
38513;SDS011;24282;48.400;10.808;2023-04-24T02:24:38;0.97;;;0.80;;
38513;SDS011;24282;48.400;10.808;2023-04-24T02:27:05;2.57;;;1.00;;
38513;SDS011;24282;48.400;10.808;2023-04-24T02:29:31;2.10;;;0.87;;
38513;SDS011;24282;48.400;10.808;2023-04-24T02:31:57;1.23;;;0.70;;
38513;SDS011;24282;48.400;10.808;2023-04-24T02:34:23;0.80;;;0.70;;
38513;SDS011;24282;48.400;10.808;2023-04-24T02:36:49;3.23;;;0.70;;
38513;SDS011;24282;48.400;10.808;2023-04-24T02:39:15;3.03;;;1.07;;
38513;SDS011;24282;48.400;10.808;2023-04-24T02:41:43;1.17;;;0.67;;
38513;SDS011;24282;48.400;10.808;2023-04-24T02:44:09;2.17;;;1.17;;
38513;SDS011;24282;48.400;10.808;2023-04-24T02:46:35;1.30;;;0.80;;
38513;SDS011;24282;48.400;10.808;2023-04-24T02:49:01;0.80;;;0.63;;
38513;SDS011;24282;48.400;10.808;2023-04-24T02:51:28;1.27;;;0.90;;
38513;SDS011;24282;48.400;10.808;2023-04-24T02:53:54;1.83;;;0.90;;
38513;SDS011;24282;48.400;10.808;2023-04-24T02:56:19;0.80;;;0.70;;
38513;SDS011;24282;48.400;10.808;2023-04-24T02:58:45;1.37;;;0.90;;
38513;SDS011;24282;48.400;10.808;2023-04-24T03:01:11;0.63;;;0.60;;
38513;SDS011;24282;48.400;10.808;2023-04-24T03:03:37;1.17;;;0.97;;
38513;SDS011;24282;48.400;10.808;2023-04-24T03:06:04;1.33;;;0.80;;
38513;SDS011;24282;48.400;10.808;2023-04-24T03:08:33;1.03;;;0.60;;
38513;SDS011;24282;48.400;10.808;2023-04-24T03:10:59;2.10;;;1.00;;
38513;SDS011;24282;48.400;10.808;2023-04-24T03:13:25;1.53;;;0.80;;
38513;SDS011;24282;48.400;10.808;2023-04-24T03:15:50;0.87;;;0.57;;
38513;SDS011;24282;48.400;10.808;2023-04-24T03:18:16;0.80;;;0.67;;
38513;SDS011;24282;48.400;10.808;2023-04-24T03:20:42;1.77;;;0.80;;
38513;SDS011;24282;48.400;10.808;2023-04-24T03:23:12;1.10;;;0.70;;
38513;SDS011;24282;48.400;10.808;2023-04-24T03:25:38;2.03;;;1.10;;
38513;SDS011;24282;48.400;10.808;2023-04-24T03:28:05;9.33;;;4.27;;
38513;SDS011;24282;48.400;10.808;2023-04-24T03:30:38;14.63;;;7.00;;
38513;SDS011;24282;48.400;10.808;2023-04-24T03:33:05;10.33;;;5.73;;
38513;SDS011;24282;48.400;10.808;2023-04-24T03:35:35;13.23;;;6.33;;
38513;SDS011;24282;48.400;10.808;2023-04-24T03:38:04;12.53;;;7.13;;
38513;SDS011;24282;48.400;10.808;2023-04-24T03:40:50;9.23;;;5.27;;
38513;SDS011;24282;48.400;10.808;2023-04-24T03:43:36;3.77;;;2.63;;
38513;SDS011;24282;48.400;10.808;2023-04-24T03:46:02;4.97;;;2.30;;
38513;SDS011;24282;48.400;10.808;2023-04-24T03:48:30;6.80;;;6.20;;
38513;SDS011;24282;48.400;10.808;2023-04-24T03:50:56;5.80;;;5.30;;
38513;SDS011;24282;48.400;10.808;2023-04-24T03:53:22;2.73;;;2.30;;
38513;SDS011;24282;48.400;10.808;2023-04-24T03:55:48;1.93;;;1.53;;
38513;SDS011;24282;48.400;10.808;2023-04-24T03:58:14;1.50;;;1.00;;
38513;SDS011;24282;48.400;10.808;2023-04-24T04:00:41;2.30;;;1.10;;
38513;SDS011;24282;48.400;10.808;2023-04-24T04:03:32;1.37;;;0.93;;
38513;SDS011;24282;48.400;10.808;2023-04-24T04:05:58;1.63;;;0.90;;
38513;SDS011;24282;48.400;10.808;2023-04-24T04:08:25;2.13;;;1.30;;
38513;SDS011;24282;48.400;10.808;2023-04-24T04:10:51;4.27;;;1.40;;
38513;SDS011;24282;48.400;10.808;2023-04-24T04:13:17;3.40;;;1.17;;
38513;SDS011;24282;48.400;10.808;2023-04-24T04:15:43;2.77;;;1.73;;
38513;SDS011;24282;48.400;10.808;2023-04-24T04:18:09;2.13;;;1.00;;
38513;SDS011;24282;48.400;10.808;2023-04-24T04:20:35;2.50;;;1.20;;
38513;SDS011;24282;48.400;10.808;2023-04-24T04:23:01;1.33;;;1.07;;
38513;SDS011;24282;48.400;10.808;2023-04-24T04:25:38;1.80;;;1.10;;
38513;SDS011;24282;48.400;10.808;2023-04-24T04:28:05;3.47;;;2.10;;
38513;SDS011;24282;48.400;10.808;2023-04-24T04:30:31;6.77;;;3.80;;
38513;SDS011;24282;48.400;10.808;2023-04-24T04:33:01;3.17;;;1.90;;
38513;SDS011;24282;48.400;10.808;2023-04-24T04:35:28;0.97;;;0.80;;
38513;SDS011;24282;48.400;10.808;2023-04-24T04:37:54;2.33;;;1.10;;
38513;SDS011;24282;48.400;10.808;2023-04-24T04:40:44;1.33;;;0.90;;
38513;SDS011;24282;48.400;10.808;2023-04-24T04:43:11;1.83;;;0.80;;
38513;SDS011;24282;48.400;10.808;2023-04-24T04:45:43;2.33;;;1.08;;
38513;SDS011;24282;48.400;10.808;2023-04-24T04:48:28;2.10;;;1.40;;
38513;SDS011;24282;48.400;10.808;2023-04-24T04:50:59;2.50;;;1.10;;
38513;SDS011;24282;48.400;10.808;2023-04-24T04:53:26;2.77;;;1.23;;
38513;SDS011;24282;48.400;10.808;2023-04-24T04:55:51;2.43;;;1.10;;
38513;SDS011;24282;48.400;10.808;2023-04-24T04:58:19;1.30;;;0.83;;
38513;SDS011;24282;48.400;10.808;2023-04-24T05:00:47;2.03;;;0.90;;
38513;SDS011;24282;48.400;10.808;2023-04-24T05:03:42;1.53;;;0.70;;
38513;SDS011;24282;48.400;10.808;2023-04-24T05:06:12;2.20;;;0.90;;
38513;SDS011;24282;48.400;10.808;2023-04-24T05:08:38;2.03;;;1.00;;
38513;SDS011;24282;48.400;10.808;2023-04-24T05:11:08;1.03;;;0.93;;
38513;SDS011;24282;48.400;10.808;2023-04-24T05:13:33;2.13;;;0.90;;
38513;SDS011;24282;48.400;10.808;2023-04-24T05:16:01;0.97;;;0.87;;
38513;SDS011;24282;48.400;10.808;2023-04-24T05:18:28;1.90;;;1.03;;
38513;SDS011;24282;48.400;10.808;2023-04-24T05:20:55;1.00;;;0.53;;
38513;SDS011;24282;48.400;10.808;2023-04-24T05:23:22;1.10;;;0.90;;
38513;SDS011;24282;48.400;10.808;2023-04-24T05:25:51;1.10;;;0.77;;
38513;SDS011;24282;48.400;10.808;2023-04-24T05:28:18;1.00;;;0.70;;
38513;SDS011;24282;48.400;10.808;2023-04-24T05:30:52;1.03;;;0.73;;
38513;SDS011;24282;48.400;10.808;2023-04-24T05:33:19;1.27;;;0.70;;
38513;SDS011;24282;48.400;10.808;2023-04-24T05:35:45;1.87;;;0.70;;
38513;SDS011;24282;48.400;10.808;2023-04-24T05:38:12;2.83;;;1.07;;
38513;SDS011;24282;48.400;10.808;2023-04-24T05:40:39;1.43;;;0.80;;
38513;SDS011;24282;48.400;10.808;2023-04-24T05:43:05;0.80;;;0.50;;
38513;SDS011;24282;48.400;10.808;2023-04-24T05:45:31;1.20;;;0.60;;
38513;SDS011;24282;48.400;10.808;2023-04-24T05:47:57;1.10;;;0.80;;
38513;SDS011;24282;48.400;10.808;2023-04-24T05:50:22;1.30;;;0.70;;
38513;SDS011;24282;48.400;10.808;2023-04-24T05:52:48;1.27;;;0.80;;
38513;SDS011;24282;48.400;10.808;2023-04-24T05:55:24;2.00;;;1.30;;
38513;SDS011;24282;48.400;10.808;2023-04-24T05:57:51;1.23;;;0.80;;
38513;SDS011;24282;48.400;10.808;2023-04-24T06:00:17;1.83;;;0.87;;
38513;SDS011;24282;48.400;10.808;2023-04-24T06:02:50;1.53;;;0.80;;
38513;SDS011;24282;48.400;10.808;2023-04-24T06:05:17;0.77;;;0.70;;
38513;SDS011;24282;48.400;10.808;2023-04-24T06:07:44;1.83;;;0.67;;
38513;SDS011;24282;48.400;10.808;2023-04-24T06:10:10;1.30;;;0.70;;
38513;SDS011;24282;48.400;10.808;2023-04-24T06:12:40;1.57;;;0.60;;
38513;SDS011;24282;48.400;10.808;2023-04-24T06:15:12;1.43;;;0.70;;
38513;SDS011;24282;48.400;10.808;2023-04-24T06:17:51;2.40;;;0.70;;
38513;SDS011;24282;48.400;10.808;2023-04-24T06:20:18;1.00;;;0.70;;
38513;SDS011;24282;48.400;10.808;2023-04-24T06:22:44;1.60;;;0.80;;
38513;SDS011;24282;48.400;10.808;2023-04-24T06:25:10;1.33;;;0.50;;
38513;SDS011;24282;48.400;10.808;2023-04-24T06:27:35;0.83;;;0.40;;
38513;SDS011;24282;48.400;10.808;2023-04-24T06:30:01;2.87;;;0.77;;
38513;SDS011;24282;48.400;10.808;2023-04-24T06:32:27;1.43;;;0.77;;
38513;SDS011;24282;48.400;10.808;2023-04-24T06:34:53;1.87;;;0.63;;
38513;SDS011;24282;48.400;10.808;2023-04-24T06:37:22;0.40;;;0.40;;
38513;SDS011;24282;48.400;10.808;2023-04-24T06:39:48;0.80;;;0.60;;
38513;SDS011;24282;48.400;10.808;2023-04-24T06:42:13;0.90;;;0.70;;
38513;SDS011;24282;48.400;10.808;2023-04-24T06:44:42;1.07;;;0.60;;
38513;SDS011;24282;48.400;10.808;2023-04-24T06:47:11;1.83;;;0.60;;
38513;SDS011;24282;48.400;10.808;2023-04-24T06:49:38;0.90;;;0.60;;
38513;SDS011;24282;48.400;10.808;2023-04-24T06:52:05;0.80;;;0.40;;
38513;SDS011;24282;48.400;10.808;2023-04-24T06:54:31;3.33;;;0.73;;
38513;SDS011;24282;48.400;10.808;2023-04-24T06:56:57;0.87;;;0.53;;
38513;SDS011;24282;48.400;10.808;2023-04-24T06:59:24;0.63;;;0.50;;
38513;SDS011;24282;48.400;10.808;2023-04-24T07:01:50;1.60;;;0.60;;
38513;SDS011;24282;48.400;10.808;2023-04-24T07:04:16;0.60;;;0.50;;
38513;SDS011;24282;48.400;10.808;2023-04-24T07:06:42;0.90;;;0.50;;
38513;SDS011;24282;48.400;10.808;2023-04-24T07:09:09;0.63;;;0.40;;
38513;SDS011;24282;48.400;10.808;2023-04-24T07:11:35;1.93;;;0.50;;
38513;SDS011;24282;48.400;10.808;2023-04-24T07:14:01;0.73;;;0.43;;
38513;SDS011;24282;48.400;10.808;2023-04-24T07:16:27;0.43;;;0.30;;
38513;SDS011;24282;48.400;10.808;2023-04-24T07:18:53;1.87;;;0.47;;
38513;SDS011;24282;48.400;10.808;2023-04-24T07:21:19;0.73;;;0.40;;
38513;SDS011;24282;48.400;10.808;2023-04-24T07:23:45;1.00;;;0.70;;
38513;SDS011;24282;48.400;10.808;2023-04-24T07:26:10;0.63;;;0.40;;
38513;SDS011;24282;48.400;10.808;2023-04-24T07:28:36;2.57;;;1.30;;
38513;SDS011;24282;48.400;10.808;2023-04-24T07:31:02;1.93;;;0.80;;
38513;SDS011;24282;48.400;10.808;2023-04-24T07:33:27;1.37;;;0.53;;
38513;SDS011;24282;48.400;10.808;2023-04-24T07:35:53;0.40;;;0.40;;
38513;SDS011;24282;48.400;10.808;2023-04-24T07:38:19;0.90;;;0.70;;
38513;SDS011;24282;48.400;10.808;2023-04-24T07:40:47;1.23;;;0.50;;
38513;SDS011;24282;48.400;10.808;2023-04-24T07:43:13;1.00;;;0.80;;
38513;SDS011;24282;48.400;10.808;2023-04-24T07:45:39;1.63;;;0.63;;
38513;SDS011;24282;48.400;10.808;2023-04-24T07:48:05;1.67;;;0.70;;
38513;SDS011;24282;48.400;10.808;2023-04-24T07:50:31;1.07;;;0.70;;
38513;SDS011;24282;48.400;10.808;2023-04-24T07:52:57;0.80;;;0.50;;
38513;SDS011;24282;48.400;10.808;2023-04-24T07:55:23;1.43;;;0.80;;
38513;SDS011;24282;48.400;10.808;2023-04-24T07:57:49;1.47;;;0.93;;
38513;SDS011;24282;48.400;10.808;2023-04-24T08:00:15;0.80;;;0.70;;
38513;SDS011;24282;48.400;10.808;2023-04-24T08:02:41;1.30;;;0.60;;
38513;SDS011;24282;48.400;10.808;2023-04-24T08:05:06;2.10;;;1.00;;
38513;SDS011;24282;48.400;10.808;2023-04-24T08:07:32;1.17;;;0.80;;
38513;SDS011;24282;48.400;10.808;2023-04-24T08:09:58;3.23;;;1.30;;
38513;SDS011;24282;48.400;10.808;2023-04-24T08:12:24;1.67;;;0.90;;
38513;SDS011;24282;48.400;10.808;2023-04-24T08:14:50;1.33;;;0.80;;
38513;SDS011;24282;48.400;10.808;2023-04-24T08:17:16;2.07;;;1.40;;
38513;SDS011;24282;48.400;10.808;2023-04-24T08:19:42;2.07;;;1.07;;
38513;SDS011;24282;48.400;10.808;2023-04-24T08:22:12;1.43;;;0.87;;
38513;SDS011;24282;48.400;10.808;2023-04-24T08:24:38;4.07;;;1.13;;
38513;SDS011;24282;48.400;10.808;2023-04-24T08:27:04;1.70;;;0.80;;
38513;SDS011;24282;48.400;10.808;2023-04-24T08:29:30;7.50;;;3.43;;
38513;SDS011;24282;48.400;10.808;2023-04-24T08:31:55;2.80;;;1.20;;
38513;SDS011;24282;48.400;10.808;2023-04-24T08:34:21;0.90;;;0.77;;
38513;SDS011;24282;48.400;10.808;2023-04-24T08:36:47;1.33;;;0.80;;
38513;SDS011;24282;48.400;10.808;2023-04-24T08:39:13;2.00;;;0.77;;
38513;SDS011;24282;48.400;10.808;2023-04-24T08:41:41;2.73;;;0.87;;
38513;SDS011;24282;48.400;10.808;2023-04-24T08:44:08;0.70;;;0.50;;
38513;SDS011;24282;48.400;10.808;2023-04-24T08:46:35;1.37;;;0.73;;
38513;SDS011;24282;48.400;10.808;2023-04-24T08:49:02;2.37;;;0.70;;
38513;SDS011;24282;48.400;10.808;2023-04-24T08:51:28;2.07;;;0.70;;
38513;SDS011;24282;48.400;10.808;2023-04-24T08:53:56;2.00;;;0.77;;
38513;SDS011;24282;48.400;10.808;2023-04-24T08:56:23;3.03;;;1.20;;
38513;SDS011;24282;48.400;10.808;2023-04-24T08:58:50;1.20;;;0.77;;
38513;SDS011;24282;48.400;10.808;2023-04-24T09:01:17;2.43;;;0.80;;
38513;SDS011;24282;48.400;10.808;2023-04-24T09:03:45;2.13;;;1.10;;
38513;SDS011;24282;48.400;10.808;2023-04-24T09:06:13;1.30;;;0.77;;
38513;SDS011;24282;48.400;10.808;2023-04-24T09:08:41;1.97;;;0.90;;
38513;SDS011;24282;48.400;10.808;2023-04-24T09:11:08;2.13;;;1.00;;
38513;SDS011;24282;48.400;10.808;2023-04-24T09:13:35;2.50;;;1.03;;
38513;SDS011;24282;48.400;10.808;2023-04-24T09:16:01;1.97;;;0.97;;
38513;SDS011;24282;48.400;10.808;2023-04-24T09:18:27;1.27;;;1.03;;
38513;SDS011;24282;48.400;10.808;2023-04-24T09:21:00;3.30;;;1.00;;
38513;SDS011;24282;48.400;10.808;2023-04-24T09:23:27;1.38;;;0.73;;
38513;SDS011;24282;48.400;10.808;2023-04-24T09:25:54;3.17;;;0.83;;
38513;SDS011;24282;48.400;10.808;2023-04-24T09:28:25;1.90;;;1.00;;
38513;SDS011;24282;48.400;10.808;2023-04-24T09:31:14;2.00;;;1.00;;
38513;SDS011;24282;48.400;10.808;2023-04-24T09:34:19;2.07;;;0.90;;
38513;SDS011;24282;48.400;10.808;2023-04-24T09:36:36;2.80;;;1.37;;
38513;SDS011;24282;48.400;10.808;2023-04-24T09:39:10;1.90;;;1.17;;
38513;SDS011;24282;48.400;10.808;2023-04-24T09:41:45;4.20;;;1.60;;
38513;SDS011;24282;48.400;10.808;2023-04-24T09:44:20;2.17;;;1.37;;
38513;SDS011;24282;48.400;10.808;2023-04-24T09:46:50;1.80;;;1.00;;
38513;SDS011;24282;48.400;10.808;2023-04-24T09:49:30;2.00;;;1.23;;
38513;SDS011;24282;48.400;10.808;2023-04-24T09:52:05;1.90;;;1.17;;
38513;SDS011;24282;48.400;10.808;2023-04-24T09:54:32;2.80;;;1.20;;
38513;SDS011;24282;48.400;10.808;2023-04-24T09:56:58;1.30;;;0.93;;
38513;SDS011;24282;48.400;10.808;2023-04-24T09:59:27;6.37;;;2.23;;
38513;SDS011;24282;48.400;10.808;2023-04-24T10:01:54;3.30;;;1.37;;
38513;SDS011;24282;48.400;10.808;2023-04-24T10:06:56;4.47;;;0.90;;
38513;SDS011;24282;48.400;10.808;2023-04-24T10:09:23;0.50;;;0.40;;
38513;SDS011;24282;48.400;10.808;2023-04-24T10:11:50;0.43;;;0.40;;
38513;SDS011;24282;48.400;10.808;2023-04-24T10:14:22;0.60;;;0.40;;
38513;SDS011;24282;48.400;10.808;2023-04-24T10:16:49;2.37;;;0.60;;
38513;SDS011;24282;48.400;10.808;2023-04-24T10:19:18;0.97;;;0.77;;
38513;SDS011;24282;48.400;10.808;2023-04-24T10:21:44;1.37;;;0.80;;
38513;SDS011;24282;48.400;10.808;2023-04-24T10:24:16;0.67;;;0.60;;
38513;SDS011;24282;48.400;10.808;2023-04-24T10:26:43;1.37;;;0.67;;
38513;SDS011;24282;48.400;10.808;2023-04-24T10:29:10;1.37;;;0.70;;
38513;SDS011;24282;48.400;10.808;2023-04-24T10:31:37;2.57;;;1.20;;
38513;SDS011;24282;48.400;10.808;2023-04-24T10:34:07;1.27;;;0.70;;
38513;SDS011;24282;48.400;10.808;2023-04-24T10:36:35;1.70;;;0.73;;
38513;SDS011;24282;48.400;10.808;2023-04-24T10:39:06;2.83;;;0.80;;
38513;SDS011;24282;48.400;10.808;2023-04-24T10:41:36;1.27;;;0.70;;
38513;SDS011;24282;48.400;10.808;2023-04-24T10:44:13;2.07;;;1.00;;
38513;SDS011;24282;48.400;10.808;2023-04-24T10:46:42;1.73;;;0.80;;
38513;SDS011;24282;48.400;10.808;2023-04-24T10:49:09;1.40;;;0.70;;
38513;SDS011;24282;48.400;10.808;2023-04-24T10:59:43;3.83;;;1.63;;
38513;SDS011;24282;48.400;10.808;2023-04-24T11:02:09;1.77;;;1.00;;
38513;SDS011;24282;48.400;10.808;2023-04-24T11:04:35;3.03;;;0.70;;
38513;SDS011;24282;48.400;10.808;2023-04-24T11:07:02;1.85;;;0.80;;
38513;SDS011;24282;48.400;10.808;2023-04-24T11:09:32;2.40;;;1.10;;
38513;SDS011;24282;48.400;10.808;2023-04-24T11:12:10;2.30;;;1.00;;
38513;SDS011;24282;48.400;10.808;2023-04-24T11:22:41;1.02;;;0.70;;
38513;SDS011;24282;48.400;10.808;2023-04-24T11:25:07;1.15;;;0.65;;
38513;SDS011;24282;48.400;10.808;2023-04-24T11:27:43;1.70;;;0.70;;
38513;SDS011;24282;48.400;10.808;2023-04-24T11:30:11;1.30;;;0.60;;
38513;SDS011;24282;48.400;10.808;2023-04-24T11:32:42;3.58;;;0.75;;
38513;SDS011;24282;48.400;10.808;2023-04-24T11:35:15;0.70;;;0.60;;
38513;SDS011;24282;48.400;10.808;2023-04-24T11:37:49;1.58;;;0.80;;
38513;SDS011;24282;48.400;10.808;2023-04-24T11:40:17;0.93;;;0.50;;
38513;SDS011;24282;48.400;10.808;2023-04-24T11:42:48;1.52;;;0.80;;
38513;SDS011;24282;48.400;10.808;2023-04-24T11:47:42;1.10;;;0.57;;
38513;SDS011;24282;48.400;10.808;2023-04-24T11:50:10;1.35;;;0.68;;
38513;SDS011;24282;48.400;10.808;2023-04-24T11:52:41;1.02;;;0.60;;
38513;SDS011;24282;48.400;10.808;2023-04-24T11:57:44;1.27;;;0.70;;
38513;SDS011;24282;48.400;10.808;2023-04-24T12:00:20;1.33;;;0.70;;
38513;SDS011;24282;48.400;10.808;2023-04-24T12:02:47;2.30;;;0.90;;
38513;SDS011;24282;48.400;10.808;2023-04-24T12:05:21;1.20;;;0.60;;
38513;SDS011;24282;48.400;10.808;2023-04-24T12:07:48;2.92;;;0.75;;
38513;SDS011;24282;48.400;10.808;2023-04-24T12:10:19;1.80;;;0.98;;
38513;SDS011;24282;48.400;10.808;2023-04-24T12:12:45;0.95;;;0.73;;
38513;SDS011;24282;48.400;10.808;2023-04-24T12:15:11;0.57;;;0.52;;
38513;SDS011;24282;48.400;10.808;2023-04-24T12:17:40;2.72;;;0.65;;
38513;SDS011;24282;48.400;10.808;2023-04-24T12:20:07;1.07;;;0.50;;
38513;SDS011;24282;48.400;10.808;2023-04-24T12:25:16;1.48;;;0.90;;
38513;SDS011;24282;48.400;10.808;2023-04-24T12:27:46;2.13;;;1.13;;
38513;SDS011;24282;48.400;10.808;2023-04-24T12:30:17;4.00;;;1.15;;
38513;SDS011;24282;48.400;10.808;2023-04-24T12:32:44;2.83;;;0.68;;
38513;SDS011;24282;48.400;10.808;2023-04-24T12:35:14;1.25;;;0.68;;
38513;SDS011;24282;48.400;10.808;2023-04-24T12:37:45;1.00;;;0.57;;
38513;SDS011;24282;48.400;10.808;2023-04-24T12:40:12;1.63;;;0.90;;
38513;SDS011;24282;48.400;10.808;2023-04-24T12:42:45;2.85;;;0.70;;
38513;SDS011;24282;48.400;10.808;2023-04-24T12:45:15;2.03;;;0.90;;
38513;SDS011;24282;48.400;10.808;2023-04-24T12:47:42;1.55;;;0.77;;
38513;SDS011;24282;48.400;10.808;2023-04-24T12:50:12;1.50;;;0.60;;
38513;SDS011;24282;48.400;10.808;2023-04-24T12:52:39;1.13;;;0.60;;
38513;SDS011;24282;48.400;10.808;2023-04-24T12:55:05;1.38;;;0.90;;
38513;SDS011;24282;48.400;10.808;2023-04-24T12:57:36;1.95;;;0.88;;
38513;SDS011;24282;48.400;10.808;2023-04-24T13:00:03;1.60;;;0.60;;
38513;SDS011;24282;48.400;10.808;2023-04-24T13:02:31;2.50;;;0.75;;
38513;SDS011;24282;48.400;10.808;2023-04-24T13:04:57;1.38;;;0.52;;
38513;SDS011;24282;48.400;10.808;2023-04-24T13:07:24;1.17;;;0.55;;
38513;SDS011;24282;48.400;10.808;2023-04-24T13:09:51;1.10;;;0.60;;
38513;SDS011;24282;48.400;10.808;2023-04-24T13:12:17;1.42;;;0.70;;
38513;SDS011;24282;48.400;10.808;2023-04-24T13:14:43;1.90;;;0.60;;
38513;SDS011;24282;48.400;10.808;2023-04-24T13:17:09;1.20;;;0.63;;
38513;SDS011;24282;48.400;10.808;2023-04-24T13:19:37;1.30;;;0.65;;
38513;SDS011;24282;48.400;10.808;2023-04-24T13:22:04;1.58;;;0.65;;
38513;SDS011;24282;48.400;10.808;2023-04-24T13:24:30;2.22;;;0.77;;
38513;SDS011;24282;48.400;10.808;2023-04-24T13:26:57;1.30;;;0.75;;
38513;SDS011;24282;48.400;10.808;2023-04-24T13:29:23;1.73;;;0.90;;
38513;SDS011;24282;48.400;10.808;2023-04-24T13:31:53;2.22;;;0.70;;
38513;SDS011;24282;48.400;10.808;2023-04-24T13:34:20;1.35;;;0.68;;
38513;SDS011;24282;48.400;10.808;2023-04-24T13:36:46;0.95;;;0.50;;
38513;SDS011;24282;48.400;10.808;2023-04-24T13:39:12;1.08;;;0.60;;
38513;SDS011;24282;48.400;10.808;2023-04-24T13:41:38;1.77;;;0.80;;
38513;SDS011;24282;48.400;10.808;2023-04-24T13:44:04;2.28;;;0.70;;
38513;SDS011;24282;48.400;10.808;2023-04-24T13:46:31;1.20;;;0.55;;
38513;SDS011;24282;48.400;10.808;2023-04-24T13:48:57;1.75;;;0.90;;
38513;SDS011;24282;48.400;10.808;2023-04-24T13:51:23;4.93;;;0.70;;
38513;SDS011;24282;48.400;10.808;2023-04-24T13:53:53;2.13;;;0.70;;
38513;SDS011;24282;48.400;10.808;2023-04-24T13:56:20;0.80;;;0.55;;
38513;SDS011;24282;48.400;10.808;2023-04-24T13:58:47;1.37;;;0.77;;
38513;SDS011;24282;48.400;10.808;2023-04-24T14:01:13;1.83;;;0.57;;
38513;SDS011;24282;48.400;10.808;2023-04-24T14:03:40;1.05;;;0.60;;
38513;SDS011;24282;48.400;10.808;2023-04-24T14:06:08;0.70;;;0.50;;
38513;SDS011;24282;48.400;10.808;2023-04-24T14:08:34;1.30;;;0.47;;
38513;SDS011;24282;48.400;10.808;2023-04-24T14:11:00;1.52;;;0.50;;
38513;SDS011;24282;48.400;10.808;2023-04-24T14:13:25;1.25;;;0.50;;
38513;SDS011;24282;48.400;10.808;2023-04-24T14:15:52;2.63;;;0.70;;
38513;SDS011;24282;48.400;10.808;2023-04-24T14:18:18;1.70;;;0.50;;
38513;SDS011;24282;48.400;10.808;2023-04-24T14:20:44;1.42;;;0.63;;
38513;SDS011;24282;48.400;10.808;2023-04-24T14:23:10;0.77;;;0.47;;
38513;SDS011;24282;48.400;10.808;2023-04-24T14:25:36;1.65;;;0.73;;
38513;SDS011;24282;48.400;10.808;2023-04-24T14:28:02;1.75;;;0.55;;
38513;SDS011;24282;48.400;10.808;2023-04-24T14:30:27;1.33;;;0.50;;
38513;SDS011;24282;48.400;10.808;2023-04-24T14:32:53;1.17;;;0.60;;
38513;SDS011;24282;48.400;10.808;2023-04-24T14:35:19;2.75;;;0.70;;
38513;SDS011;24282;48.400;10.808;2023-04-24T14:37:45;0.60;;;0.43;;
38513;SDS011;24282;48.400;10.808;2023-04-24T14:40:11;1.33;;;0.50;;
38513;SDS011;24282;48.400;10.808;2023-04-24T14:42:37;3.65;;;0.55;;
38513;SDS011;24282;48.400;10.808;2023-04-24T14:45:02;1.08;;;0.40;;
38513;SDS011;24282;48.400;10.808;2023-04-24T14:47:28;1.40;;;0.60;;
38513;SDS011;24282;48.400;10.808;2023-04-24T14:49:54;1.20;;;0.60;;
38513;SDS011;24282;48.400;10.808;2023-04-24T14:52:20;1.42;;;0.40;;
38513;SDS011;24282;48.400;10.808;2023-04-24T14:54:46;0.88;;;0.57;;
38513;SDS011;24282;48.400;10.808;2023-04-24T14:57:12;1.50;;;0.50;;
38513;SDS011;24282;48.400;10.808;2023-04-24T14:59:38;0.50;;;0.40;;
38513;SDS011;24282;48.400;10.808;2023-04-24T15:02:04;0.80;;;0.40;;